createdAt,value
2023-05-18T03:03:03.320Z,3.26
2023-05-18T03:04:05.740Z,3.24
2023-05-18T03:05:09.810Z,3.23
2023-05-18T03:06:11.836Z,3.24
2023-05-18T03:07:14.664Z,3.26
2023-05-18T03:08:16.604Z,3.26
2023-05-18T03:09:20.023Z,3.27
2023-05-18T03:10:22.352Z,3.27
2023-05-18T03:11:26.172Z,3.26
2023-05-18T03:12:28.281Z,3.26
2023-05-18T03:13:31.351Z,3.26
2023-05-18T03:14:34.250Z,3.25
2023-05-18T03:15:37.823Z,3.25
2023-05-18T03:16:40.593Z,3.26
2023-05-18T03:17:48.155Z,3.28
2023-05-18T03:18:51.712Z,3.28
2023-05-18T03:19:54.673Z,3.27
2023-05-18T03:21:01.893Z,3.30
2023-05-18T03:22:05.914Z,3.28
2023-05-18T03:23:08.582Z,3.23
2023-05-18T03:24:15.000Z,3.17
2023-05-18T03:25:19.860Z,3.16
2023-05-18T03:26:26.088Z,3.14
2023-05-18T03:27:28.451Z,3.16
2023-05-18T03:28:32.090Z,3.16
2023-05-18T03:29:34.628Z,3.17
2023-05-18T03:30:39.618Z,3.20
2023-05-18T03:31:41.782Z,3.20
2023-05-18T03:32:48.511Z,3.21
2023-05-18T03:33:52.496Z,3.23
2023-05-18T03:34:55.797Z,3.22
2023-05-18T03:36:00.494Z,3.21
2023-05-18T03:37:04.089Z,3.21
2023-05-18T03:38:07.669Z,3.20
2023-05-18T03:39:12.232Z,3.20
2023-05-18T03:40:16.561Z,3.11
2023-05-18T03:41:22.016Z,3.09
2023-05-18T03:42:25.801Z,3.05
2023-05-18T03:43:29.682Z,3.02
2023-05-18T03:44:31.963Z,3.03
2023-05-18T03:45:34.905Z,3.05
2023-05-18T03:46:36.927Z,3.06
2023-05-18T03:47:41.212Z,3.05
2023-05-18T03:48:43.248Z,3.05
2023-05-18T03:49:47.393Z,3.03
2023-05-18T03:50:49.569Z,3.03
2023-05-18T03:51:54.443Z,3.05
2023-05-18T03:52:56.626Z,3.06
2023-05-18T03:53:59.602Z,3.09
2023-05-18T03:55:02.046Z,3.10
2023-05-18T03:56:04.981Z,3.06
2023-05-18T03:57:06.896Z,3.07
2023-05-18T03:58:09.830Z,3.08
2023-05-18T03:59:11.869Z,3.09
2023-05-18T04:00:15.969Z,3.10
2023-05-18T04:01:25.831Z,3.10
2023-05-18T04:02:28.823Z,3.09
2023-05-18T04:03:31.559Z,3.06
2023-05-18T04:04:34.769Z,3.05
2023-05-18T04:05:38.149Z,3.07
2023-05-18T04:06:41.079Z,3.08
2023-05-18T04:07:44.289Z,3.10
2023-05-18T04:08:47.417Z,3.06
2023-05-18T04:09:50.433Z,3.06
2023-05-18T04:10:53.585Z,3.05
2023-05-18T04:11:55.649Z,3.03
2023-05-18T04:12:58.553Z,3.06
2023-05-18T04:14:01.148Z,3.09
2023-05-18T04:15:04.500Z,3.12
2023-05-18T04:16:07.703Z,3.12
2023-05-18T04:17:10.649Z,3.14
2023-05-18T04:18:14.846Z,3.16
2023-05-18T04:19:19.099Z,3.15
2023-05-18T04:20:21.232Z,3.14
2023-05-18T04:21:25.438Z,3.16
2023-05-18T04:22:31.294Z,3.20
2023-05-18T04:23:38.887Z,3.22
2023-05-18T04:24:41.469Z,3.26
2023-05-18T04:25:46.018Z,3.25
2023-05-18T04:26:48.659Z,3.27
2023-05-18T04:27:52.787Z,3.30
2023-05-18T04:29:00.300Z,3.32
2023-05-18T04:30:03.291Z,3.35
2023-05-18T04:31:06.745Z,3.35
2023-05-18T04:32:10.692Z,3.37
2023-05-18T04:33:16.481Z,3.41
2023-05-18T04:34:19.992Z,3.43
2023-05-18T04:35:24.876Z,3.45
2023-05-18T04:36:30.954Z,3.49
2023-05-18T04:37:36.375Z,3.54
2023-05-18T04:38:39.436Z,3.56
2023-05-18T04:39:42.428Z,3.58
2023-05-18T04:40:46.753Z,3.63
2023-05-18T04:41:50.694Z,3.65
2023-05-18T04:42:52.697Z,3.66
2023-05-18T04:44:00.960Z,3.66
2023-05-18T04:45:03.398Z,3.69
2023-05-18T04:46:07.387Z,3.70
2023-05-18T04:47:09.811Z,3.72
2023-05-18T04:48:14.390Z,3.76
2023-05-18T04:49:16.315Z,3.77
2023-05-18T04:50:19.978Z,3.82
2023-05-18T04:51:21.988Z,3.84
2023-05-18T04:52:26.278Z,3.87
2023-05-18T04:53:28.259Z,3.88
2023-05-18T04:54:31.894Z,3.93
2023-05-18T04:55:35.201Z,3.97
2023-05-18T04:56:42.422Z,4.00
2023-05-18T04:57:44.913Z,4.06
2023-05-18T04:58:49.660Z,4.07
2023-05-18T04:59:53.276Z,4.11
2023-05-18T05:00:58.447Z,4.13
2023-05-18T05:56:04.416Z,6.32
2023-05-18T05:57:10.360Z,6.42
2023-05-18T05:58:13.285Z,6.50
2023-05-18T05:59:17.592Z,6.60
2023-05-18T06:00:23.242Z,6.64
2023-05-18T06:01:32.172Z,6.67
2023-05-18T06:02:34.407Z,6.63
2023-05-18T06:03:37.820Z,6.74
2023-05-18T06:04:41.493Z,6.79
2023-05-18T06:05:45.364Z,6.84
2023-05-18T06:06:48.722Z,6.88
2023-05-18T06:07:52.985Z,6.94
2023-05-18T06:08:55.360Z,7.04
2023-05-18T06:09:58.276Z,7.10
2023-05-18T06:11:00.583Z,7.10
2023-05-18T06:12:05.662Z,7.16
2023-05-18T06:13:07.965Z,7.25
2023-05-18T06:14:17.561Z,7.28
2023-05-18T06:15:20.087Z,7.34
2023-05-18T06:16:22.977Z,7.37
2023-05-18T06:17:25.936Z,7.35
2023-05-18T06:18:27.981Z,7.40
2023-05-18T06:19:35.867Z,7.46
2023-05-18T06:20:37.916Z,7.52
2023-05-18T06:21:40.929Z,7.62
2023-05-18T06:22:44.695Z,7.71
2023-05-18T06:24:01.485Z,7.87
2023-05-18T06:25:11.874Z,7.99
2023-05-18T06:26:24.971Z,8.16
2023-05-18T06:27:48.499Z,8.40
2023-05-18T06:28:58.388Z,8.55
2023-05-18T06:30:10.980Z,8.82
2023-05-18T06:31:30.265Z,8.99
2023-05-18T06:32:45.335Z,9.09
2023-05-18T06:33:47.901Z,9.20
2023-05-18T06:34:50.791Z,9.33
2023-05-18T06:35:52.994Z,9.40
2023-05-18T06:36:58.654Z,9.45
2023-05-18T06:38:01.611Z,9.55
2023-05-18T06:39:04.948Z,9.61
2023-05-18T06:40:08.952Z,9.62
2023-05-18T06:41:11.235Z,9.64
2023-05-18T06:42:14.409Z,9.67
2023-05-18T06:43:28.645Z,9.75
2023-05-18T06:44:37.996Z,9.75
2023-05-18T06:45:43.599Z,9.80
2023-05-18T06:46:51.644Z,9.83
2023-05-18T06:47:58.925Z,9.88
2023-05-18T06:49:02.189Z,9.96
2023-05-18T06:50:05.259Z,10.02
2023-05-18T06:51:08.383Z,10.02
2023-05-18T06:52:11.401Z,10.10
2023-05-18T06:53:13.703Z,10.15
2023-05-18T06:54:16.759Z,10.17
2023-05-18T06:55:20.085Z,10.18
2023-05-18T06:56:23.209Z,10.21
2023-05-18T06:57:26.677Z,10.20
2023-05-18T06:58:30.993Z,10.20
2023-05-18T06:59:36.998Z,10.18
2023-05-18T07:00:40.134Z,10.18
2023-05-18T07:01:44.125Z,10.20
2023-05-18T07:02:47.545Z,10.19
2023-05-18T07:03:49.837Z,10.22
2023-05-18T07:04:53.095Z,10.31
2023-05-18T07:05:55.118Z,10.39
2023-05-18T07:06:58.565Z,10.46
2023-05-18T07:08:01.177Z,10.42
2023-05-18T07:09:05.565Z,10.53
2023-05-18T07:10:08.971Z,10.63
2023-05-18T07:11:12.514Z,10.76
2023-05-18T07:12:19.296Z,10.87
2023-05-18T07:13:23.063Z,10.98
2023-05-18T07:14:27.316Z,11.14
2023-05-18T07:15:32.364Z,11.25
2023-05-18T07:16:38.237Z,11.34
2023-05-18T07:17:42.157Z,11.34
2023-05-18T07:18:46.177Z,11.37
2023-05-18T07:19:49.144Z,11.43
2023-05-18T07:20:52.914Z,11.49
2023-05-18T07:21:57.091Z,11.59
2023-05-18T07:23:00.671Z,11.66
2023-05-18T07:24:04.517Z,11.74
2023-05-18T07:25:07.881Z,11.78
2023-05-18T07:26:12.228Z,11.76
2023-05-18T07:27:17.927Z,11.82
2023-05-18T07:28:21.934Z,11.85
2023-05-18T07:29:25.006Z,11.93
2023-05-18T07:30:30.705Z,11.95
2023-05-18T07:31:34.310Z,11.89
2023-05-18T07:32:38.402Z,11.80
2023-05-18T07:33:41.437Z,11.76
2023-05-18T07:34:46.898Z,11.70
2023-05-18T07:35:50.794Z,11.74
2023-05-18T07:36:54.744Z,11.81
2023-05-18T07:37:57.792Z,11.89
2023-05-18T07:39:01.812Z,11.94
2023-05-18T07:40:05.242Z,12.02
2023-05-18T07:41:09.219Z,12.03
2023-05-18T07:42:12.464Z,12.06
2023-05-18T07:43:18.926Z,12.03
2023-05-18T07:44:22.207Z,12.10
2023-05-18T07:45:26.323Z,12.19
2023-05-18T07:46:31.869Z,12.35
2023-05-18T07:47:36.369Z,12.52
2023-05-18T07:48:41.043Z,12.63
2023-05-18T07:49:45.304Z,12.62
2023-05-18T07:50:49.331Z,12.65
2023-05-18T07:51:53.699Z,12.74
2023-05-18T07:52:57.751Z,12.80
2023-05-18T07:54:00.825Z,12.79
2023-05-18T07:55:04.968Z,12.79
2023-05-18T07:56:08.943Z,12.78
2023-05-18T07:57:13.698Z,12.89
2023-05-18T07:58:16.373Z,12.99
2023-05-18T07:59:20.250Z,13.00
2023-05-18T08:00:24.702Z,13.08
2023-05-18T08:01:28.020Z,13.10
2023-05-18T08:02:34.774Z,13.04
2023-05-18T08:03:40.186Z,13.12
2023-05-18T08:04:45.416Z,13.18
2023-05-18T08:05:48.829Z,13.13
2023-05-18T08:06:54.925Z,13.00
2023-05-18T08:07:59.011Z,13.02
2023-05-18T08:09:01.907Z,13.12
2023-05-18T08:10:06.361Z,13.04
2023-05-18T08:11:13.283Z,13.11
2023-05-18T08:12:17.703Z,13.18
2023-05-18T08:13:20.639Z,13.20
2023-05-18T08:14:26.027Z,13.32
2023-05-18T08:15:29.460Z,13.39
2023-05-18T08:16:37.686Z,13.41
2023-05-18T08:17:42.126Z,13.58
2023-05-18T08:18:47.228Z,13.73
2023-05-18T08:19:51.448Z,13.86
2023-05-18T08:20:56.014Z,13.87
2023-05-18T08:22:03.953Z,13.80
2023-05-18T08:23:10.841Z,13.70
2023-05-18T08:24:14.784Z,13.75
2023-05-18T08:25:17.879Z,13.78
2023-05-18T08:26:22.381Z,13.91
2023-05-18T08:27:25.506Z,14.06
2023-05-18T08:28:29.561Z,14.19
2023-05-18T08:29:32.447Z,14.35
2023-05-18T08:30:36.589Z,14.52
2023-05-18T08:31:41.827Z,14.69
2023-05-18T08:32:50.189Z,14.79
2023-05-18T08:33:53.626Z,14.89
2023-05-18T08:34:57.806Z,14.92
2023-05-18T08:36:00.580Z,14.94
2023-05-18T08:37:04.989Z,14.96
2023-05-18T08:38:09.310Z,14.91
2023-05-18T08:39:13.747Z,14.94
2023-05-18T08:40:17.882Z,14.93
2023-05-18T08:41:26.373Z,14.94
2023-05-18T08:42:48.499Z,15.01
2023-05-18T08:44:03.257Z,15.03
2023-05-18T08:45:15.564Z,15.00
2023-05-18T08:46:22.003Z,15.05
2023-05-18T08:47:27.014Z,15.09
2023-05-18T08:48:32.965Z,15.16
2023-05-18T08:49:38.118Z,15.21
2023-05-18T08:50:42.380Z,15.05
2023-05-18T08:51:48.456Z,15.05
2023-05-18T08:52:56.756Z,15.05
2023-05-18T08:54:01.335Z,15.17
2023-05-18T08:55:10.953Z,15.15
2023-05-18T08:56:16.835Z,15.27
2023-05-18T08:57:23.815Z,15.42
2023-05-18T08:58:36.429Z,15.49
2023-05-18T08:59:43.797Z,15.70
2023-05-18T09:00:46.872Z,15.68
2023-05-18T09:01:50.953Z,15.58
2023-05-18T09:02:54.817Z,15.54
2023-05-18T09:04:00.836Z,15.43
2023-05-18T09:05:04.949Z,15.40
2023-05-18T09:06:10.674Z,15.43
2023-05-18T09:07:15.072Z,15.51
2023-05-18T09:08:20.706Z,15.55
2023-05-18T09:09:24.807Z,15.45
2023-05-18T09:10:28.555Z,15.41
2023-05-18T09:11:35.383Z,15.48
2023-05-18T09:12:44.039Z,15.47
2023-05-18T09:13:49.599Z,15.36
2023-05-18T09:14:56.690Z,15.35
2023-05-18T09:16:00.250Z,15.25
2023-05-18T09:17:04.406Z,15.35
2023-05-18T09:18:07.813Z,15.44
2023-05-18T09:19:15.168Z,15.58
2023-05-18T09:20:19.644Z,15.68
2023-05-18T09:21:22.699Z,15.76
2023-05-18T09:22:25.209Z,15.87
2023-05-18T09:23:30.032Z,15.99
2023-05-18T09:24:35.996Z,15.96
2023-05-18T09:25:46.812Z,15.93
2023-05-18T09:26:52.138Z,15.92
2023-05-18T09:27:56.255Z,15.95
2023-05-18T09:29:01.783Z,15.92
2023-05-18T09:30:07.943Z,15.97
2023-05-18T09:31:18.483Z,15.99
2023-05-18T09:32:23.846Z,16.14
2023-05-18T09:33:34.788Z,15.99
2023-05-18T09:34:46.385Z,15.96
2023-05-18T09:35:53.316Z,15.75
2023-05-18T09:36:59.385Z,15.69
2023-05-18T09:38:06.324Z,15.69
2023-05-18T09:39:13.763Z,15.63
2023-05-18T09:40:21.769Z,15.68
2023-05-18T09:41:31.429Z,15.87
2023-05-18T09:42:40.587Z,16.07
2023-05-18T09:43:45.375Z,16.17
2023-05-18T09:44:50.562Z,16.28
2023-05-18T09:45:55.896Z,16.18
2023-05-18T09:46:59.509Z,16.07
2023-05-18T09:48:04.664Z,16.09
2023-05-18T09:49:10.987Z,16.07
2023-05-18T09:50:21.056Z,16.09
2023-05-18T09:51:26.275Z,16.10
2023-05-18T09:52:30.924Z,16.04
2023-05-18T09:53:38.060Z,16.11
2023-05-18T09:54:42.229Z,16.02
2023-05-18T09:55:49.502Z,16.09
2023-05-18T09:57:09.061Z,16.17
2023-05-18T09:58:14.880Z,16.27
2023-05-18T09:59:19.350Z,16.41
2023-05-18T10:00:24.120Z,16.50
2023-05-18T10:01:30.529Z,16.69
2023-05-18T10:02:33.843Z,16.84
2023-05-18T10:03:39.987Z,16.95
2023-05-18T10:04:45.041Z,17.14
2023-05-18T10:05:51.555Z,17.18
2023-05-18T10:06:56.110Z,17.27
2023-05-18T10:07:59.530Z,17.33
2023-05-18T10:09:05.949Z,17.42
2023-05-18T10:10:09.592Z,17.42
2023-05-18T10:11:13.593Z,17.31
2023-05-18T10:12:17.875Z,17.22
2023-05-18T10:13:23.091Z,17.03
2023-05-18T10:14:34.241Z,16.75
2023-05-18T10:15:40.177Z,16.49
2023-05-18T10:16:57.220Z,16.33
2023-05-18T10:18:04.809Z,16.35
2023-05-18T10:19:11.485Z,16.05
2023-05-18T10:20:19.520Z,15.98
2023-05-18T10:21:31.265Z,16.02
2023-05-18T10:22:36.330Z,16.06
2023-05-18T10:23:42.528Z,16.09
2023-05-18T10:24:51.126Z,16.23
2023-05-18T10:25:56.239Z,16.43
2023-05-18T10:27:03.297Z,16.56
2023-05-18T10:28:11.798Z,16.73
2023-05-18T10:29:16.664Z,16.92
2023-05-18T10:30:20.726Z,16.93
2023-05-18T10:31:27.609Z,16.87
2023-05-18T10:32:33.952Z,16.95
2023-05-18T10:33:38.554Z,16.96
2023-05-18T10:34:45.284Z,16.84
2023-05-18T10:35:49.700Z,16.77
2023-05-18T10:36:55.595Z,16.63
2023-05-18T10:38:01.007Z,16.63
2023-05-18T10:39:07.398Z,16.67
2023-05-18T10:40:13.110Z,16.66
2023-05-18T10:41:25.511Z,16.54
2023-05-18T10:42:31.692Z,16.36
2023-05-18T10:43:37.551Z,16.11
2023-05-18T10:44:41.706Z,16.14
2023-05-18T10:45:49.026Z,16.16
2023-05-18T10:46:52.710Z,16.17
2023-05-18T10:47:59.471Z,16.29
2023-05-18T10:49:12.021Z,16.57
2023-05-18T10:50:16.981Z,16.79
2023-05-18T10:51:22.973Z,17.10
2023-05-18T10:52:32.375Z,17.16
2023-05-18T10:53:37.237Z,17.17
2023-05-18T10:54:43.453Z,17.34
2023-05-18T10:55:47.402Z,17.51
2023-05-18T10:56:54.497Z,17.54
2023-05-18T10:58:04.248Z,17.45
2023-05-18T10:59:10.594Z,17.23
2023-05-18T11:00:15.179Z,17.11
2023-05-18T11:01:19.520Z,16.95
2023-05-18T11:02:23.684Z,16.75
2023-05-18T11:03:28.873Z,16.69
2023-05-18T11:04:33.878Z,16.77
2023-05-18T11:05:36.902Z,16.83
2023-05-18T11:06:43.613Z,17.01
2023-05-18T11:07:48.480Z,17.28
2023-05-18T11:08:53.167Z,17.49
2023-05-18T11:09:56.973Z,17.58
2023-05-18T11:11:04.452Z,17.66
2023-05-18T11:12:13.453Z,17.84
2023-05-18T11:13:17.381Z,17.80
2023-05-18T11:14:28.705Z,17.50
2023-05-18T11:15:55.424Z,17.41
2023-05-18T11:17:18.177Z,17.34
2023-05-18T11:18:21.427Z,17.43
2023-05-18T11:19:28.291Z,17.37
2023-05-18T11:20:31.409Z,17.51
2023-05-18T11:21:54.492Z,17.70
2023-05-18T11:23:04.978Z,17.90
2023-05-18T11:24:18.069Z,18.07
2023-05-18T11:25:40.354Z,18.20
2023-05-18T11:26:43.284Z,18.27
2023-05-18T11:27:46.970Z,18.20
2023-05-18T11:28:53.063Z,18.03
2023-05-18T11:30:11.769Z,17.88
2023-05-18T11:31:20.125Z,17.80
2023-05-18T11:32:30.107Z,17.76
2023-05-18T11:33:36.774Z,17.49
2023-05-18T11:34:45.444Z,17.61
2023-05-18T11:35:58.141Z,17.68
2023-05-18T11:37:01.098Z,17.77
2023-05-18T11:38:10.476Z,17.82
2023-05-18T11:39:25.261Z,17.94
2023-05-18T11:40:47.450Z,18.23
2023-05-18T11:42:03.210Z,18.55
2023-05-18T11:43:06.090Z,18.86
2023-05-18T11:44:20.875Z,19.06
2023-05-18T11:45:25.705Z,19.25
2023-05-18T11:46:30.673Z,19.50
2023-05-18T11:47:38.229Z,19.64
2023-05-18T11:48:45.364Z,19.59
2023-05-18T11:49:50.961Z,19.53
2023-05-18T11:50:55.280Z,19.27
2023-05-18T11:52:04.248Z,19.27
2023-05-18T11:53:08.259Z,19.37
2023-05-18T11:54:12.669Z,19.52
2023-05-18T11:55:18.349Z,19.52
2023-05-18T11:56:21.813Z,19.44
2023-05-18T11:57:28.710Z,19.42
2023-05-18T11:58:32.103Z,19.42
2023-05-18T11:59:39.109Z,19.64
2023-05-18T12:00:43.441Z,19.73
2023-05-18T12:01:46.366Z,19.95
2023-05-18T12:02:53.072Z,20.01
2023-05-18T12:03:56.725Z,20.05
2023-05-18T12:05:02.352Z,19.92
2023-05-18T12:06:07.181Z,20.09
2023-05-18T12:07:12.174Z,20.04
2023-05-18T12:08:19.210Z,19.84
2023-05-18T12:09:23.808Z,19.90
2023-05-18T12:10:31.796Z,19.59
2023-05-18T12:11:35.515Z,18.99
2023-05-18T12:12:39.808Z,18.84
2023-05-18T12:13:44.136Z,18.78
2023-05-18T12:14:56.849Z,18.69
2023-05-18T12:16:01.029Z,18.65
2023-05-18T12:17:05.672Z,18.33
2023-05-18T12:18:09.892Z,18.12
2023-05-18T12:19:13.107Z,17.93
2023-05-18T12:20:18.184Z,17.96
2023-05-18T12:21:22.697Z,17.72
2023-05-18T12:22:28.326Z,17.66
2023-05-18T12:23:38.240Z,17.83
2023-05-18T12:24:45.339Z,18.09
2023-05-18T12:25:49.530Z,18.37
2023-05-18T12:26:54.330Z,18.64
2023-05-18T12:27:58.673Z,18.79
2023-05-18T12:29:02.425Z,18.81
2023-05-18T12:30:07.676Z,18.85
2023-05-18T12:31:10.588Z,18.88
2023-05-18T12:32:15.086Z,18.89
2023-05-18T12:33:18.667Z,18.84
2023-05-18T12:34:21.558Z,18.82
2023-05-18T12:35:26.827Z,18.90
2023-05-18T12:36:30.207Z,18.88
2023-05-18T12:37:41.635Z,19.01
2023-05-18T12:38:50.779Z,19.05
2023-05-18T12:39:56.073Z,18.77
2023-05-18T12:40:59.091Z,18.49
2023-05-18T12:42:12.144Z,18.53
2023-05-18T12:43:14.910Z,18.54
2023-05-18T12:44:19.297Z,18.47
2023-05-18T12:45:25.214Z,18.34
2023-05-18T12:46:28.722Z,18.17
2023-05-18T12:47:35.848Z,17.93
2023-05-18T12:48:39.340Z,17.87
2023-05-18T12:49:45.244Z,17.82
2023-05-18T12:50:48.943Z,17.79
2023-05-18T12:51:56.734Z,17.78
2023-05-18T12:52:59.433Z,17.83
2023-05-18T12:54:04.361Z,17.98
2023-05-18T12:55:10.706Z,18.09
2023-05-18T12:56:14.441Z,18.25
2023-05-18T12:57:21.294Z,18.58
2023-05-18T12:58:25.103Z,18.90
2023-05-18T12:59:28.675Z,19.01
2023-05-18T13:00:34.387Z,19.27
2023-05-18T13:01:44.086Z,19.42
2023-05-18T13:02:48.200Z,19.48
2023-05-18T13:03:56.322Z,19.64
2023-05-18T13:05:04.426Z,19.62
2023-05-18T13:06:09.914Z,19.54
2023-05-18T13:07:13.822Z,19.67
2023-05-18T13:08:18.316Z,19.77
2023-05-18T13:09:22.032Z,19.72
2023-05-18T13:10:26.130Z,19.71
2023-05-18T13:11:30.297Z,19.37
2023-05-18T13:12:38.860Z,19.13
2023-05-18T13:13:59.240Z,18.81
2023-05-18T13:15:11.978Z,18.41
2023-05-18T13:16:18.960Z,18.01
2023-05-18T13:17:24.675Z,17.96
2023-05-18T13:18:28.634Z,18.07
2023-05-18T13:19:33.534Z,18.13
2023-05-18T13:20:39.235Z,18.21
2023-05-18T13:21:42.850Z,18.11
2023-05-18T13:22:45.608Z,18.14
2023-05-18T13:23:49.290Z,18.24
2023-05-18T13:24:52.429Z,18.28
2023-05-18T13:25:59.020Z,18.50
2023-05-18T13:27:02.708Z,18.77
2023-05-18T13:28:07.286Z,18.86
2023-05-18T13:29:11.392Z,18.93
2023-05-18T13:30:16.555Z,18.97
2023-05-18T13:31:22.637Z,19.16
2023-05-18T13:32:25.496Z,19.35
2023-05-18T13:33:29.256Z,19.52
2023-05-18T13:34:33.567Z,19.59
2023-05-18T13:35:36.746Z,19.61
2023-05-18T13:36:41.221Z,19.47
2023-05-18T13:37:44.136Z,19.42
2023-05-18T13:38:47.736Z,19.39
2023-05-18T13:39:50.642Z,19.22
2023-05-18T13:40:54.827Z,19.37
2023-05-18T13:42:00.216Z,19.51
2023-05-18T13:43:06.233Z,19.64
2023-05-18T13:44:10.056Z,19.71
2023-05-18T13:45:15.779Z,19.83
2023-05-18T13:46:20.746Z,19.66
2023-05-18T13:47:26.389Z,19.62
2023-05-18T13:48:30.552Z,19.63
2023-05-18T13:49:35.210Z,19.51
2023-05-18T13:50:39.243Z,19.44
2023-05-18T13:51:42.879Z,19.28
2023-05-18T13:52:47.752Z,19.01
2023-05-18T13:53:51.467Z,19.10
2023-05-18T13:54:56.384Z,19.31
2023-05-18T13:56:00.472Z,19.40
2023-05-18T13:57:04.900Z,19.52
2023-05-18T13:58:08.741Z,19.52
2023-05-18T13:59:12.095Z,19.59
2023-05-18T14:00:17.478Z,19.57
2023-05-18T14:01:22.708Z,19.20
2023-05-18T14:02:27.245Z,19.18
2023-05-18T14:03:31.657Z,19.31
2023-05-18T14:04:34.692Z,19.52
2023-05-18T14:05:39.235Z,19.59
2023-05-18T14:06:42.026Z,19.44
2023-05-18T14:07:46.608Z,19.30
2023-05-18T14:08:51.412Z,19.41
2023-05-18T14:09:54.120Z,19.57
2023-05-18T14:10:57.946Z,19.68
2023-05-18T14:12:00.747Z,19.66
2023-05-18T14:13:08.755Z,19.72
2023-05-18T14:14:12.110Z,19.80
2023-05-18T14:15:17.726Z,19.97
2023-05-18T14:16:22.408Z,20.13
2023-05-18T14:17:25.726Z,20.01
2023-05-18T14:18:30.770Z,19.96
2023-05-18T14:19:34.044Z,19.95
2023-05-18T14:20:38.756Z,19.86
2023-05-18T14:21:41.219Z,19.62
2023-05-18T14:22:45.029Z,19.65
2023-05-18T14:23:49.359Z,19.56
2023-05-18T14:24:53.382Z,19.51
2023-05-18T14:25:56.323Z,19.57
2023-05-18T14:27:00.911Z,19.74
2023-05-18T14:28:05.180Z,19.85
2023-05-18T14:29:09.445Z,20.04
2023-05-18T14:30:14.604Z,20.24
2023-05-18T14:31:19.137Z,20.44
2023-05-18T14:32:22.099Z,20.59
2023-05-18T14:33:26.086Z,20.53
2023-05-18T14:34:30.070Z,20.32
2023-05-18T14:35:33.958Z,20.16
2023-05-18T14:36:36.545Z,20.06
2023-05-18T14:37:40.079Z,19.94
2023-05-18T14:38:43.834Z,19.82
2023-05-18T14:39:49.103Z,19.89
2023-05-18T14:40:51.688Z,20.08
2023-05-18T14:41:55.453Z,20.07
2023-05-18T14:42:59.642Z,19.91
2023-05-18T14:44:04.406Z,19.65
2023-05-18T14:45:09.699Z,19.53
2023-05-18T14:46:12.895Z,19.54
2023-05-18T14:47:17.738Z,19.71
2023-05-18T14:48:21.638Z,19.92
2023-05-18T14:49:25.050Z,20.15
2023-05-18T14:50:29.563Z,20.36
2023-05-18T14:51:32.455Z,20.66
2023-05-18T14:52:36.134Z,20.78
2023-05-18T14:53:39.073Z,20.76
2023-05-18T14:54:43.215Z,20.99
2023-05-18T14:55:46.443Z,21.19
2023-05-18T14:56:50.845Z,21.18
2023-05-18T14:57:55.116Z,21.13
2023-05-18T14:58:57.346Z,21.17
2023-05-18T15:00:03.222Z,21.13
2023-05-18T15:01:07.729Z,20.90
2023-05-18T15:02:12.519Z,20.67
2023-05-18T15:03:16.173Z,20.43
2023-05-18T15:04:22.065Z,20.27
2023-05-18T15:05:24.903Z,20.02
2023-05-18T15:06:29.645Z,19.81
2023-05-18T15:07:34.350Z,19.56
2023-05-18T15:08:37.940Z,19.26
2023-05-18T15:09:41.660Z,19.01
2023-05-18T15:10:45.172Z,18.90
2023-05-18T15:11:49.637Z,19.07
2023-05-18T15:12:52.945Z,19.16
2023-05-18T15:13:56.891Z,19.28
2023-05-18T15:15:01.903Z,19.52
2023-05-18T15:16:05.149Z,19.81
2023-05-18T15:17:08.969Z,20.10
2023-05-18T15:18:12.785Z,20.27
2023-05-18T15:19:16.559Z,20.39
2023-05-18T15:20:19.569Z,20.41
2023-05-18T15:21:23.885Z,20.49
2023-05-18T15:22:27.593Z,20.52
2023-05-18T15:23:30.223Z,20.60
2023-05-18T15:24:34.466Z,20.54
2023-05-18T15:25:37.478Z,20.54
2023-05-18T15:26:42.103Z,20.44
2023-05-18T15:27:45.912Z,20.28
2023-05-18T15:28:49.450Z,20.03
2023-05-18T15:29:53.647Z,19.81
2023-05-18T15:30:58.012Z,19.79
2023-05-18T15:32:01.730Z,19.79
2023-05-18T15:33:06.383Z,19.84
2023-05-18T15:34:09.404Z,19.96
2023-05-18T15:35:13.336Z,20.17
2023-05-18T15:36:16.275Z,20.39
2023-05-18T15:37:19.759Z,20.69
2023-05-18T15:38:22.354Z,20.85
2023-05-18T15:39:26.752Z,21.02
2023-05-18T15:40:29.406Z,21.07
2023-05-18T15:41:35.252Z,21.12
2023-05-18T15:42:38.127Z,21.08
2023-05-18T15:43:42.347Z,20.99
2023-05-18T15:44:46.481Z,21.07
2023-05-18T15:45:49.322Z,21.18
2023-05-18T15:46:55.129Z,21.23
2023-05-18T15:47:58.653Z,21.29
2023-05-18T15:49:02.581Z,21.42
2023-05-18T15:50:06.293Z,21.31
2023-05-18T15:51:10.488Z,21.07
2023-05-18T15:52:13.026Z,20.95
2023-05-18T15:53:16.948Z,20.89
2023-05-18T15:54:19.681Z,20.94
2023-05-18T15:55:23.260Z,20.94
2023-05-18T15:56:26.104Z,20.87
2023-05-18T15:57:29.492Z,20.79
2023-05-18T15:58:32.000Z,20.66
2023-05-18T15:59:36.672Z,20.70
2023-05-18T16:00:39.158Z,20.66
2023-05-18T16:01:45.185Z,20.70
2023-05-18T16:02:49.872Z,20.75
2023-05-18T16:03:54.754Z,20.83
2023-05-18T16:04:58.484Z,20.85
2023-05-18T16:06:02.565Z,21.03
2023-05-18T16:07:05.433Z,21.18
2023-05-18T16:08:09.908Z,21.16
2023-05-18T16:09:15.247Z,20.91
2023-05-18T16:10:18.722Z,20.76
2023-05-18T16:11:22.879Z,20.54
2023-05-18T16:12:25.754Z,20.26
2023-05-18T16:13:29.278Z,20.11
2023-05-18T16:14:33.336Z,19.94
2023-05-18T16:15:37.514Z,19.64
2023-05-18T16:16:41.985Z,19.65
2023-05-18T16:17:45.663Z,19.81
2023-05-18T16:18:50.495Z,19.93
2023-05-18T16:19:54.588Z,20.15
2023-05-18T16:20:57.542Z,20.38
2023-05-18T16:22:01.341Z,20.47
2023-05-18T16:23:04.110Z,20.70
2023-05-18T16:24:08.726Z,21.00
2023-05-18T16:25:11.152Z,21.18
2023-05-18T16:26:15.222Z,21.41
2023-05-18T16:27:17.752Z,21.60
2023-05-18T16:28:22.069Z,21.76
2023-05-18T16:29:24.987Z,21.40
2023-05-18T16:30:30.648Z,21.21
2023-05-18T16:31:33.563Z,21.09
2023-05-18T16:32:38.057Z,20.89
2023-05-18T16:33:41.267Z,20.61
2023-05-18T16:34:46.783Z,20.39
2023-05-18T16:35:49.549Z,20.31
2023-05-18T16:36:53.570Z,20.14
2023-05-18T16:37:57.063Z,20.03
2023-05-18T16:39:03.053Z,19.88
2023-05-18T16:40:07.055Z,19.62
2023-05-18T16:41:11.835Z,19.48
2023-05-18T16:42:15.420Z,19.30
2023-05-18T16:43:18.571Z,19.17
2023-05-18T16:44:22.958Z,19.09
2023-05-18T16:45:27.186Z,19.20
2023-05-18T16:46:31.167Z,19.48
2023-05-18T16:47:37.875Z,19.68
2023-05-18T16:48:40.967Z,19.87
2023-05-18T16:49:47.690Z,20.13
2023-05-18T16:50:50.828Z,20.39
2023-05-18T16:51:54.699Z,20.46
2023-05-18T16:52:58.319Z,20.48
2023-05-18T16:54:02.465Z,20.40
2023-05-18T16:55:07.283Z,20.29
2023-05-18T16:56:09.883Z,20.15
2023-05-18T16:57:13.993Z,20.01
2023-05-18T16:58:17.633Z,19.94
2023-05-18T16:59:22.915Z,20.06
2023-05-18T17:00:27.133Z,20.06
2023-05-18T17:01:31.562Z,20.04
2023-05-18T17:02:38.489Z,20.10
2023-05-18T17:03:42.814Z,20.18
2023-05-18T17:04:50.373Z,20.34
2023-05-18T17:05:53.149Z,20.54
2023-05-18T17:06:58.411Z,20.63
2023-05-18T17:08:02.555Z,20.71
2023-05-18T17:09:06.386Z,20.66
2023-05-18T17:10:10.985Z,20.84
2023-05-18T17:11:13.580Z,20.97
2023-05-18T17:12:18.064Z,21.03
2023-05-18T17:13:21.391Z,21.13
2023-05-18T17:14:25.932Z,21.19
2023-05-18T17:15:31.415Z,21.24
2023-05-18T17:16:40.556Z,21.17
2023-05-18T17:17:45.340Z,20.99
2023-05-18T17:18:48.572Z,21.00
2023-05-18T17:19:54.213Z,20.93
2023-05-18T17:21:01.545Z,20.85
2023-05-18T17:22:06.260Z,20.85
2023-05-18T17:23:09.050Z,20.92
2023-05-18T17:24:12.746Z,20.91
2023-05-18T17:25:15.507Z,20.74
2023-05-18T17:26:19.621Z,20.73
2023-05-18T17:27:23.428Z,20.60
2023-05-18T17:28:26.476Z,20.44
2023-05-18T17:29:30.186Z,20.34
2023-05-18T17:30:33.992Z,20.45
2023-05-18T17:31:38.291Z,20.47
2023-05-18T17:32:41.395Z,20.48
2023-05-18T17:33:47.434Z,20.37
2023-05-18T17:34:49.755Z,20.29
2023-05-18T17:35:57.762Z,19.95
2023-05-18T17:37:00.430Z,19.78
2023-05-18T17:38:05.634Z,19.73
2023-05-18T17:39:08.752Z,19.53
2023-05-18T17:40:13.773Z,19.35
2023-05-18T17:41:16.869Z,19.24
2023-05-18T17:42:22.526Z,19.17
2023-05-18T17:43:25.146Z,19.17
2023-05-18T17:44:30.726Z,19.10
2023-05-18T17:45:34.523Z,19.03
2023-05-18T17:46:38.451Z,18.95
2023-05-18T17:47:42.252Z,18.91
2023-05-18T17:48:45.987Z,18.82
2023-05-18T17:49:50.346Z,18.84
2023-05-18T17:50:55.821Z,18.80
2023-05-18T17:51:59.315Z,18.67
2023-05-18T17:53:06.490Z,18.65
2023-05-18T17:54:09.130Z,18.65
2023-05-18T17:55:13.673Z,18.66
2023-05-18T17:56:17.449Z,18.57
2023-05-18T17:57:23.050Z,18.54
2023-05-18T17:58:26.130Z,18.49
2023-05-18T17:59:30.397Z,18.48